La Push, Washington
Current Conditions -  °F | °C
As of 5:07 PM on Wednesday 22 Oct 2014 (Local Time) from KUIL Reporting Station
Moderate Rain Moderate Rain  
Wind Chill: 54°   Ceiling: 2200
Heat Index: 54°   Visibility: 1.7mi
Dew Point: 53°   Wind: 0mph
Humidity: 97%   Direction: NA
Pressure: 29.51"   Gusts: NA
Location:  47.91°N, 124.64°W
Report Text: KUIL 230007Z AUTO 00000KT 1 3/4SM RA BR FEW017 BKN022 OVC050 12/12 A2951 RMK AO2 P0004 T01220117
Loading
Personal Weather Stations






























Interactive Weather Map
Tropical Storm Tracking
New forecast layout! Learn more

10-Day Weather Forecast

Advertisements
Track Severe Weather on mobile